Cummings, North Dakota
Current Conditions -  °F | °C
As of 12:06 PM on Thursday 30 Oct 2014 (Local Time) from KGFK Reporting Station
Overcast Overcast  
Wind Chill: -3°   Ceiling: 2800
Heat Index:   Visibility: 10mi
Dew Point: -2°   Wind: 23mph
Humidity: 70%   Direction: 350°N
Pressure: 30.31"   Gusts: 31mph
Location:  47.51°N, 97.08°W
Report Text: KGFK 301706Z 35020G27KT 10SM SCT016 OVC028 03/M02 A3031 RMK AO2 PK WND 01027/1702
Loading
Personal Weather Stations






























Interactive Weather Map
Tropical Storm Tracking
New forecast layout! Learn more

10-Day Weather Forecast

Advertisements
Track Severe Weather on mobile